Time;durP1;ratioP1;P1;durP2;ratioP2;P2;SDS_P1;SDS_P2;PMS_P1;PMS_P2;Temp;Humidity;BMP_temperature;BMP_pressure;BME280_temperature;BME280_humidity;BME280_pressure;Samples;Min_cycle;Max_cycle;Signal;HPM_P1;HPM_P2
2022/02/24 00:00:38;;;;;;;9.67;3.17;;;;;;;2.39;100.00;96645.50;5011155;28;20033;-79
2022/02/24 00:03:04;;;;;;;10.13;2.80;;;;;;;2.30;100.00;96630.50;5032538;28;20041;-78
2022/02/24 00:05:29;;;;;;;7.40;2.50;;;;;;;2.29;100.00;96644.41;5039593;28;20040;-79
2022/02/24 00:07:55;;;;;;;11.53;3.20;;;;;;;2.35;100.00;96638.84;5018254;28;20545;-79
2022/02/24 00:10:21;;;;;;;8.53;3.27;;;;;;;2.32;100.00;96633.84;5023524;28;20037;-78
2022/02/24 00:12:47;;;;;;;7.73;3.13;;;;;;;2.31;100.00;96635.63;5035125;28;20040;-79
2022/02/24 00:15:13;;;;;;;12.97;3.37;;;;;;;2.32;100.00;96639.88;5052151;28;20517;-79
2022/02/24 00:17:40;;;;;;;11.80;3.70;;;;;;;2.25;100.00;96628.22;5022892;28;20034;-79
2022/02/24 00:20:10;;;;;;;11.63;3.53;;;;;;;2.21;100.00;96638.88;5022078;28;20025;-78
2022/02/24 00:22:35;;;;;;;8.07;2.43;;;;;;;2.01;100.00;96628.03;5029106;28;20099;-79
2022/02/24 00:25:03;;;;;;;10.03;3.07;;;;;;;1.94;100.00;96624.13;5055764;28;20017;-79
2022/02/24 00:27:29;;;;;;;7.27;3.10;;;;;;;1.94;100.00;96618.09;5042343;28;20594;-79
2022/02/24 00:29:57;;;;;;;9.37;2.80;;;;;;;1.84;100.00;96610.91;5035223;28;20080;-79
2022/02/24 00:32:22;;;;;;;9.83;3.87;;;;;;;1.85;100.00;96619.53;5031341;28;20427;-79
2022/02/24 00:34:48;;;;;;;11.60;3.37;;;;;;;1.88;100.00;96622.75;5049613;28;20048;-79
2022/02/24 00:37:15;;;;;;;8.23;3.80;;;;;;;1.82;100.00;96611.94;5046032;28;20024;-79
2022/02/24 00:39:43;;;;;;;9.40;3.93;;;;;;;1.77;100.00;96621.75;5033336;28;20037;-78
2022/02/24 00:42:08;;;;;;;12.10;3.80;;;;;;;1.73;100.00;96612.50;5041625;28;20522;-79
2022/02/24 00:44:34;;;;;;;9.77;3.53;;;;;;;1.74;100.00;96611.56;5037371;28;21208;-79
2022/02/24 00:47:00;;;;;;;9.67;3.67;;;;;;;1.82;100.00;96609.34;5030824;28;20034;-78
2022/02/24 00:49:25;;;;;;;9.70;3.37;;;;;;;1.73;100.00;96600.38;5041327;28;20044;-80
2022/02/24 00:51:51;;;;;;;7.53;2.50;;;;;;;1.73;100.00;96600.38;5030977;28;20028;-79
2022/02/24 00:54:18;;;;;;;7.90;3.17;;;;;;;1.87;100.00;96604.69;5046615;28;20048;-77
2022/02/24 00:57:10;;;;;;;11.97;3.03;;;;;;;1.97;100.00;96598.00;5054847;28;20032;-80
2022/02/24 00:59:36;;;;;;;9.03;2.57;;;;;;;2.01;100.00;96603.81;5034591;28;20497;-79
2022/02/24 01:02:02;;;;;;;6.10;3.10;;;;;;;2.04;100.00;96603.63;5019192;28;20472;-78
2022/02/24 01:04:28;;;;;;;8.00;2.90;;;;;;;2.09;100.00;96602.41;5020091;28;20029;-79
2022/02/24 01:06:53;;;;;;;8.57;3.00;;;;;;;2.15;100.00;96600.34;5022861;28;20067;-78
2022/02/24 01:09:19;;;;;;;6.43;2.17;;;;;;;2.20;100.00;96593.09;5026593;28;20033;-78
2022/02/24 01:11:45;;;;;;;9.87;2.40;;;;;;;2.25;100.00;96589.28;5033972;28;20022;-79
2022/02/24 01:14:10;;;;;;;9.60;2.73;;;;;;;2.31;100.00;96590.63;5034021;28;20032;-79
2022/02/24 01:16:37;;;;;;;5.90;1.93;;;;;;;2.33;100.00;96586.19;5044882;28;20065;-79
2022/02/24 01:19:03;;;;;;;15.10;3.27;;;;;;;2.34;100.00;96574.88;5034856;28;20024;-78
2022/02/24 01:21:28;;;;;;;5.83;2.30;;;;;;;2.33;100.00;96575.81;5054760;28;20816;-79
2022/02/24 01:23:54;;;;;;;8.57;2.70;;;;;;;2.36;100.00;96579.03;5034924;28;20124;-78
2022/02/24 01:26:20;;;;;;;6.93;2.40;;;;;;;2.42;100.00;96567.44;5043275;28;20037;-79
2022/02/24 01:28:46;;;;;;;8.47;2.37;;;;;;;2.43;100.00;96566.50;5057649;28;20570;-80
2022/02/24 01:31:13;;;;;;;7.13;2.10;;;;;;;2.49;100.00;96563.50;5036237;28;20033;-78
2022/02/24 01:33:39;;;;;;;7.60;2.23;;;;;;;2.54;100.00;96556.22;5032680;28;20091;-78
2022/02/24 01:36:05;;;;;;;7.33;2.37;;;;;;;2.62;100.00;96565.28;5032017;28;20905;-79
2022/02/24 01:38:31;;;;;;;7.00;2.53;;;;;;;2.75;100.00;96553.97;5024746;28;20463;-79
2022/02/24 01:40:56;;;;;;;5.57;2.20;;;;;;;2.87;100.00;96547.09;5039203;28;20411;-79
2022/02/24 01:43:22;;;;;;;6.20;2.23;;;;;;;2.98;100.00;96539.41;5039337;28;20038;-78
2022/02/24 01:45:48;;;;;;;5.90;2.00;;;;;;;3.04;100.00;96533.78;5038824;28;20033;-79
2022/02/24 01:48:13;;;;;;;6.90;2.00;;;;;;;3.12;100.00;96535.88;5026058;28;20026;-79
2022/02/24 01:50:39;;;;;;;7.20;2.00;;;;;;;3.16;100.00;96528.69;5026497;28;20474;-78
2022/02/24 01:53:05;;;;;;;6.80;1.97;;;;;;;3.17;100.00;96522.56;5037269;28;20021;-78
2022/02/24 01:55:31;;;;;;;9.37;2.20;;;;;;;3.18;100.00;96525.03;5053967;28;20505;-79
2022/02/24 01:57:57;;;;;;;7.70;2.17;;;;;;;3.26;100.00;96521.91;5008552;28;20567;-79
2022/02/24 02:00:23;;;;;;;5.17;2.03;;;;;;;3.37;100.00;96522.00;5068488;28;20044;-79
2022/02/24 02:02:49;;;;;;;9.27;2.43;;;;;;;3.38;100.00;96520.22;5024029;28;20018;-80
2022/02/24 02:05:15;;;;;;;5.17;2.10;;;;;;;3.45;100.00;96524.88;5036720;28;20033;-80
2022/02/24 02:07:41;;;;;;;5.13;1.87;;;;;;;3.47;100.00;96515.19;5017004;28;20479;-80
2022/02/24 02:10:08;;;;;;;5.03;1.90;;;;;;;3.51;100.00;96508.84;5059956;28;20037;-79
2022/02/24 02:12:54;;;;;;;5.83;1.77;;;;;;;3.60;100.00;96509.97;5026108;28;20032;-78
2022/02/24 02:15:20;;;;;;;7.80;1.93;;;;;;;3.64;100.00;96510.56;5002719;28;20042;-78
2022/02/24 02:17:46;;;;;;;4.90;1.67;;;;;;;3.67;100.00;96510.34;5062940;28;20028;-79
2022/02/24 02:20:12;;;;;;;5.47;1.90;;;;;;;3.70;100.00;96500.56;5078156;28;20471;-79
2022/02/24 02:22:38;;;;;;;9.50;2.10;;;;;;;3.71;100.00;96504.81;5043122;28;20036;-79
2022/02/24 02:25:07;;;;;;;5.50;1.63;;;;;;;3.75;100.00;96498.44;5055431;28;20434;-80
2022/02/24 02:27:33;;;;;;;4.43;1.40;;;;;;;3.77;100.00;96485.34;5046961;28;20037;-79
2022/02/24 02:29:59;;;;;;;4.40;1.67;;;;;;;3.80;100.00;96479.94;5044367;28;20052;-79
2022/02/24 02:32:25;;;;;;;6.30;1.80;;;;;;;3.76;100.00;96474.13;5016442;28;20483;-79
2022/02/24 02:34:51;;;;;;;3.60;1.47;;;;;;;3.74;100.00;96475.16;5027481;28;20033;-79
2022/02/24 02:37:16;;;;;;;4.40;2.00;;;;;;;3.70;100.00;96468.53;5016705;28;20065;-79
2022/02/24 02:39:43;;;;;;;6.73;1.60;;;;;;;3.62;100.00;96465.63;5026537;28;20040;-79
2022/02/24 02:42:09;;;;;;;5.60;1.70;;;;;;;3.52;100.00;96465.47;5006272;28;20029;-79
2022/02/24 02:44:34;;;;;;;4.77;1.70;;;;;;;3.42;100.00;96460.13;5040870;28;20481;-79
2022/02/24 02:47:00;;;;;;;5.87;1.93;;;;;;;3.35;100.00;96456.28;5026850;28;20037;-78
2022/02/24 02:49:26;;;;;;;6.33;1.87;;;;;;;3.36;100.00;96455.34;5034939;28;20647;-79
2022/02/24 02:51:52;;;;;;;6.50;1.53;;;;;;;3.23;100.00;96455.38;5031023;28;20049;-79
2022/02/24 02:54:18;;;;;;;5.90;2.47;;;;;;;3.18;100.00;96449.66;5024452;28;20510;-81
2022/02/24 02:56:44;;;;;;;4.67;1.83;;;;;;;3.11;100.00;96450.22;5032205;28;20029;-80
2022/02/24 02:59:09;;;;;;;6.40;1.53;;;;;;;3.10;100.00;96444.19;5022553;28;20442;-79
2022/02/24 03:01:35;;;;;;;8.33;1.97;;;;;;;3.07;100.00;96442.63;5067910;28;20482;-79
2022/02/24 03:04:02;;;;;;;6.17;2.10;;;;;;;3.12;100.00;96439.72;5036777;28;20064;-78
2022/02/24 03:06:27;;;;;;;6.50;2.10;;;;;;;3.07;100.00;96434.84;5043314;28;20087;-79
2022/02/24 03:08:53;;;;;;;4.53;1.60;;;;;;;3.12;100.00;96437.13;5040462;28;20036;-79
2022/02/24 03:11:18;;;;;;;6.77;1.80;;;;;;;3.19;100.00;96429.72;5036989;28;20407;-80
2022/02/24 03:13:44;;;;;;;7.97;2.40;;;;;;;3.14;100.00;96434.41;5036721;28;20100;-80
2022/02/24 03:16:10;;;;;;;6.30;1.87;;;;;;;2.98;100.00;96430.28;5017824;28;20037;-78
2022/02/24 03:18:35;;;;;;;5.80;1.90;;;;;;;2.87;100.00;96438.00;5042343;28;20040;-78
2022/02/24 03:21:01;;;;;;;4.97;1.87;;;;;;;2.64;100.00;96437.00;5008976;28;20038;-78
2022/02/24 03:23:27;;;;;;;6.33;1.93;;;;;;;2.42;100.00;96437.66;5020521;28;20061;-78
2022/02/24 03:25:52;;;;;;;7.43;1.83;;;;;;;2.31;100.00;96437.53;5025106;28;20047;-79
2022/02/24 03:28:18;;;;;;;5.97;1.73;;;;;;;2.19;100.00;96440.97;5018670;28;20029;-78
2022/02/24 03:30:44;;;;;;;4.37;1.70;;;;;;;2.19;100.00;96435.78;5043433;28;20073;-80
2022/02/24 03:33:09;;;;;;;6.60;2.23;;;;;;;2.20;100.00;96430.47;5041237;28;20033;-78
2022/02/24 03:35:37;;;;;;;5.80;1.90;;;;;;;2.09;100.00;96431.19;5035315;28;20033;-79
2022/02/24 03:38:07;;;;;;;5.00;2.10;;;;;;;2.01;100.00;96430.03;5034016;28;20024;-79
2022/02/24 03:40:33;;;;;;;8.60;2.60;;;;;;;1.99;100.00;96422.38;5039800;28;20033;-81
2022/02/24 03:42:58;;;;;;;5.67;2.30;;;;;;;2.01;100.00;96425.69;5042334;28;20462;-79
2022/02/24 03:45:24;;;;;;;6.57;2.40;;;;;;;1.99;100.00;96424.13;5037838;28;20045;-78
2022/02/24 03:47:49;;;;;;;5.87;2.20;;;;;;;1.95;100.00;96422.69;5036129;28;20017;-78
2022/02/24 03:50:16;;;;;;;4.80;1.90;;;;;;;1.88;100.00;96425.69;5037442;28;20037;-81
2022/02/24 03:52:44;;;;;;;5.43;2.07;;;;;;;1.87;100.00;96417.97;5034780;28;20037;-78
2022/02/24 03:55:10;;;;;;;6.33;2.30;;;;;;;1.88;100.00;96422.25;5020734;28;20473;-79
2022/02/24 03:57:36;;;;;;;5.30;2.27;;;;;;;1.85;100.00;96417.28;5033870;28;20504;-78
2022/02/24 04:00:04;;;;;;;9.73;2.80;;;;;;;1.79;100.00;96412.47;5040675;28;20041;-78
2022/02/24 04:02:38;;;;;;;6.90;2.17;;;;;;;1.85;100.00;96412.09;5035521;28;20053;-79
2022/02/24 04:05:05;;;;;;;11.67;4.60;;;;;;;1.84;100.00;96411.22;5035410;28;20436;-80
2022/02/24 04:07:30;;;;;;;7.50;3.33;;;;;;;1.88;100.00;96411.88;5046770;28;20056;-79
2022/02/24 04:09:56;;;;;;;10.07;3.10;;;;;;;1.97;100.00;96411.25;5016245;28;20526;-79
2022/02/24 04:12:22;;;;;;;13.70;6.03;;;;;;;1.97;100.00;96406.06;5026801;28;20056;-79
2022/02/24 04:14:48;;;;;;;24.57;9.93;;;;;;;1.98;100.00;96402.56;5043014;28;20166;-79
2022/02/24 04:17:14;;;;;;;14.37;5.47;;;;;;;1.95;100.00;96399.34;5047585;28;20500;-79
2022/02/24 04:19:40;;;;;;;12.40;4.40;;;;;;;1.97;100.00;96400.06;5036033;28;20090;-79
2022/02/24 04:22:06;;;;;;;21.37;8.63;;;;;;;1.97;100.00;96398.28;5037887;28;20034;-79
2022/02/24 04:24:32;;;;;;;43.73;18.90;;;;;;;2.02;100.00;96401.41;5034924;28;20502;-79
2022/02/24 04:26:59;;;;;;;40.20;16.47;;;;;;;2.02;100.00;96401.41;5022115;28;20521;-79
2022/02/24 04:29:25;;;;;;;30.30;12.83;;;;;;;2.10;100.00;96390.50;5041924;28;20470;-79
2022/02/24 04:31:51;;;;;;;35.37;11.77;;;;;;;2.11;100.00;96387.84;5041994;28;20029;-79
2022/02/24 04:34:16;;;;;;;29.20;10.23;;;;;;;2.17;100.00;96383.97;5014262;28;20052;-78
2022/02/24 04:36:42;;;;;;;15.60;5.70;;;;;;;2.17;100.00;96380.56;5020052;28;20038;-79
2022/02/24 04:39:08;;;;;;;12.33;4.23;;;;;;;2.18;100.00;96371.81;5045956;28;20443;-79
2022/02/24 04:41:33;;;;;;;7.73;2.63;;;;;;;2.15;100.00;96370.28;5063126;28;20029;-78
2022/02/24 04:43:59;;;;;;;9.30;2.80;;;;;;;2.11;100.00;96359.28;5032645;28;20124;-79
2022/02/24 04:46:25;;;;;;;7.23;2.90;;;;;;;2.05;100.00;96359.72;5043714;28;20033;-79
2022/02/24 04:48:51;;;;;;;7.03;3.23;;;;;;;1.98;100.00;96366.25;5041548;28;20036;-79
2022/02/24 04:51:17;;;;;;;7.60;2.97;;;;;;;1.97;100.00;96369.75;5034659;28;20711;-79
2022/02/24 04:53:43;;;;;;;8.50;2.70;;;;;;;1.97;100.00;96368.94;5021034;28;20492;-79
2022/02/24 04:56:08;;;;;;;8.03;3.00;;;;;;;1.92;100.00;96360.63;5047184;28;20055;-79
2022/02/24 04:58:34;;;;;;;7.87;2.67;;;;;;;1.91;100.00;96359.78;5037800;28;20033;-79
2022/02/24 05:01:01;;;;;;;8.60;2.83;;;;;;;1.89;100.00;96361.66;5018213;28;20101;-79
2022/02/24 05:03:26;;;;;;;5.83;2.53;;;;;;;1.85;100.00;96357.63;5013432;28;20108;-80
2022/02/24 05:05:52;;;;;;;5.70;2.70;;;;;;;1.86;100.00;96347.13;5020271;28;21186;-78
2022/02/24 05:08:18;;;;;;;7.93;2.97;;;;;;;1.87;100.00;96353.97;5017682;28;20063;-79
2022/02/24 05:10:44;;;;;;;9.17;3.20;;;;;;;1.82;100.00;96344.88;5025919;28;20490;-79
2022/02/24 05:13:10;;;;;;;10.10;2.83;;;;;;;1.82;100.00;96344.88;5021710;28;20026;-78
2022/02/24 05:15:36;;;;;;;9.90;3.53;;;;;;;1.80;100.00;96341.53;5043510;28;20554;-79
2022/02/24 05:18:01;;;;;;;10.43;3.07;;;;;;;1.79;100.00;96339.88;5042096;28;20041;-78
2022/02/24 05:20:27;;;;;;;7.93;3.37;;;;;;;1.72;100.00;96339.47;5033814;28;20545;-79
2022/02/24 05:22:53;;;;;;;7.20;3.00;;;;;;;1.69;100.00;96334.47;5021012;28;20053;-78
2022/02/24 05:25:18;;;;;;;10.13;3.80;;;;;;;1.70;100.00;96341.31;5051111;28;20040;-78
2022/02/24 05:27:45;;;;;;;8.50;2.93;;;;;;;1.70;100.00;96333.53;5028957;28;20021;-79
2022/02/24 05:30:13;;;;;;;8.47;3.93;;;;;;;1.68;100.00;96332.81;5040709;28;20024;-80
2022/02/24 05:32:40;;;;;;;9.10;3.87;;;;;;;1.62;100.00;96323.69;5019659;28;20499;-79
2022/02/24 05:35:08;;;;;;;9.90;5.00;;;;;;;1.53;100.00;96324.28;5045189;28;20456;-78
2022/02/24 05:37:34;;;;;;;14.83;7.70;;;;;;;1.45;100.00;96320.56;5046601;28;20467;-79
2022/02/24 05:40:03;;;;;;;10.43;5.77;;;;;;;1.41;100.00;96320.75;5005437;28;21020;-79
2022/02/24 05:42:29;;;;;;;11.03;4.63;;;;;;;1.40;100.00;96310.47;5047951;28;20491;-79
2022/02/24 05:44:57;;;;;;;8.33;3.23;;;;;;;1.38;100.00;96309.78;5038862;28;20467;-78
2022/02/24 05:47:22;;;;;;;9.10;4.07;;;;;;;1.33;100.00;96315.22;5028453;28;20468;-79
2022/02/24 05:49:50;;;;;;;12.70;8.13;;;;;;;1.29;100.00;96305.19;5019128;28;20669;-78
2022/02/24 05:52:17;;;;;;;15.47;9.20;;;;;;;1.28;100.00;96311.31;5018266;28;20041;-80
2022/02/24 05:54:43;;;;;;;26.47;17.07;;;;;;;1.25;100.00;96303.72;5019794;28;20472;-80
2022/02/24 05:57:11;;;;;;;30.77;19.00;;;;;;;1.20;100.00;96303.19;5026367;28;20539;-79
2022/02/24 05:59:37;;;;;;;16.03;8.57;;;;;;;1.23;100.00;96297.81;5030093;28;20040;-79
2022/02/24 06:02:03;;;;;;;9.40;5.70;;;;;;;1.18;100.00;96296.34;5037200;28;20459;-78
2022/02/24 06:04:29;;;;;;;9.27;5.57;;;;;;;1.22;100.00;96290.97;5041053;28;20037;-79
2022/02/24 06:06:55;;;;;;;11.57;5.23;;;;;;;1.23;100.00;96284.84;5036507;28;20053;-79
2022/02/24 06:09:21;;;;;;;9.63;4.70;;;;;;;1.22;100.00;96290.97;5019516;28;20120;-80
2022/02/24 06:11:47;;;;;;;12.43;4.63;;;;;;;1.24;100.00;96291.69;5028484;28;20067;-80
2022/02/24 06:14:13;;;;;;;9.97;5.23;;;;;;;1.24;100.00;96292.53;5039155;28;20526;-79
2022/02/24 06:16:38;;;;;;;12.47;6.80;;;;;;;1.24;100.00;96292.53;5083539;28;20471;-78
2022/02/24 06:19:04;;;;;;;10.63;5.40;;;;;;;1.28;100.00;96298.34;5051954;28;20065;-79
2022/02/24 06:21:30;;;;;;;9.87;5.33;;;;;;;1.28;100.00;96298.34;5060538;28;20029;-79
2022/02/24 06:23:55;;;;;;;12.63;5.80;;;;;;;1.26;100.00;96293.25;5044916;28;20030;-80
2022/02/24 06:26:21;;;;;;;15.33;7.10;;;;;;;1.24;100.00;96292.53;5026925;28;20029;-78
2022/02/24 06:28:47;;;;;;;19.07;8.27;;;;;;;1.25;100.00;96298.53;5039442;28;20088;-78
2022/02/24 06:31:13;;;;;;;27.40;13.23;;;;;;;1.27;100.00;96296.66;5017990;28;20025;-78
2022/02/24 06:33:38;;;;;;;32.60;16.23;;;;;;;1.25;100.00;96294.19;5034435;28;20029;-79
2022/02/24 06:36:04;;;;;;;36.30;15.43;;;;;;;1.17;100.00;96289.53;5029733;28;20045;-79
2022/02/24 06:38:30;;;;;;;28.90;14.17;;;;;;;1.14;100.00;96284.53;5045278;28;20037;-78
2022/02/24 06:40:56;;;;;;;31.10;13.83;;;;;;;1.17;100.00;96289.53;5018465;28;20494;-79
2022/02/24 06:43:22;;;;;;;22.07;10.40;;;;;;;1.25;100.00;96288.19;5021689;28;20041;-78
2022/02/24 06:45:48;;;;;;;19.77;9.10;;;;;;;1.25;100.00;96277.81;5037986;28;20044;-79
2022/02/24 06:48:14;;;;;;;18.27;9.20;;;;;;;1.42;100.00;96283.53;5014903;28;20848;-78
2022/02/24 06:50:39;;;;;;;20.97;8.43;;;;;;;1.48;100.00;96282.31;5035510;28;20025;-78
2022/02/24 06:53:05;;;;;;;22.97;11.77;;;;;;;1.54;100.00;96273.28;5014191;28;20050;-81
2022/02/24 06:55:33;;;;;;;23.63;11.73;;;;;;;1.60;100.00;96267.69;5025986;28;20037;-78
2022/02/24 06:57:58;;;;;;;16.93;9.50;;;;;;;1.68;100.00;96269.75;5043321;28;20104;-79
2022/02/24 07:00:25;;;;;;;15.07;7.93;;;;;;;1.79;100.00;96267.28;5042461;28;20464;-79
2022/02/24 07:02:53;;;;;;;13.40;7.03;;;;;;;1.80;100.00;96268.94;5018036;28;20071;-79
2022/02/24 07:05:19;;;;;;;11.50;6.47;;;;;;;1.87;100.00;96275.34;5026747;28;20494;-79
2022/02/24 07:07:45;;;;;;;13.07;6.27;;;;;;;1.91;100.00;96276.78;5006007;28;20873;-79
2022/02/24 07:10:13;;;;;;;9.97;5.77;;;;;;;1.95;100.00;96280.03;5000155;28;20614;-79
2022/02/24 07:12:40;;;;;;;14.33;6.43;;;;;;;1.98;100.00;96267.69;5017982;28;20101;-79
2022/02/24 07:15:06;;;;;;;12.87;5.63;;;;;;;2.06;100.00;96260.19;5025995;28;20988;-78
2022/02/24 07:17:32;;;;;;;13.23;5.80;;;;;;;2.19;100.00;96261.94;5039037;28;20495;-79
2022/02/24 07:19:58;;;;;;;8.93;5.30;;;;;;;2.38;100.00;96259.69;5011462;28;20488;-79
2022/02/24 07:22:25;;;;;;;10.57;5.77;;;;;;;2.58;100.00;96260.88;5030534;28;20046;-80
2022/02/24 07:24:51;;;;;;;8.43;4.73;;;;;;;2.67;100.00;96259.41;5038922;28;20490;-82
2022/02/24 07:27:17;;;;;;;10.33;5.00;;;;;;;2.92;100.00;96251.50;5035952;28;20041;-80
2022/02/24 07:29:42;;;;;;;9.90;4.53;;;;;;;3.00;100.00;96256.97;5033990;28;20053;-79
2022/02/24 07:32:08;;;;;;;11.07;5.13;;;;;;;3.21;100.00;96264.13;5027559;28;20034;-80
2022/02/24 07:34:34;;;;;;;10.83;5.63;;;;;;;3.21;100.00;96264.13;5048614;28;20096;-79
2022/02/24 07:37:00;;;;;;;13.27;6.13;;;;;;;3.26;100.00;96264.63;5015128;28;20064;-81
2022/02/24 07:39:25;;;;;;;9.93;5.27;;;;;;;3.43;100.00;96258.16;5022075;28;20088;-81
2022/02/24 07:41:51;;;;;;;9.83;5.43;;;;;;;3.61;100.00;96250.75;5051755;28;20035;-80
2022/02/24 07:44:17;;;;;;;13.40;6.13;;;;;;;3.59;100.00;96252.63;5042097;28;20061;-80
2022/02/24 07:46:43;;;;;;;12.73;6.30;;;;;;;3.71;100.00;96246.50;5038695;28;20040;-80
2022/02/24 07:49:08;;;;;;;11.57;6.43;;;;;;;3.52;100.00;96236.66;5033353;28;20064;-79
2022/02/24 07:51:36;;;;;;;15.13;6.37;;;;;;;3.69;100.00;96240.56;5034694;28;20067;-80
2022/02/24 07:54:02;;;;;;;11.23;6.03;;;;;;;3.79;100.00;96233.75;5027767;28;20033;-79
2022/02/24 07:56:27;;;;;;;12.87;6.57;;;;;;;3.86;100.00;96227.13;5038174;28;20040;-80
2022/02/24 07:58:53;;;;;;;12.83;6.93;;;;;;;4.08;100.00;96233.28;5028023;28;20040;-80
2022/02/24 08:01:23;;;;;;;15.73;6.77;;;;;;;4.18;100.00;96223.78;5006627;28;20140;-79
2022/02/24 08:03:50;;;;;;;12.37;6.47;;;;;;;4.52;100.00;96218.53;5056085;28;20037;-78
2022/02/24 08:06:17;;;;;;;14.53;5.83;;;;;;;4.90;100.00;96216.28;5023506;28;20065;-80
2022/02/24 08:08:43;;;;;;;9.30;5.10;;;;;;;5.04;100.00;96207.34;5015531;28;20064;-80
2022/02/24 08:11:08;;;;;;;11.70;5.10;;;;;;;5.21;100.00;96208.56;5032905;28;20030;-80
2022/02/24 08:13:34;;;;;;;11.90;6.83;;;;;;;5.45;100.00;96208.28;5024106;28;20499;-80
2022/02/24 08:16:00;;;;;;;12.50;4.70;;;;;;;5.80;100.00;96200.13;5012230;28;20033;-80
2022/02/24 08:18:25;;;;;;;8.13;4.13;;;;;;;6.14;100.00;96192.03;5033927;28;20029;-82
2022/02/24 08:20:51;;;;;;;10.33;4.57;;;;;;;6.64;99.77;96193.75;5037963;28;20079;-80
2022/02/24 08:23:18;;;;;;;11.40;4.20;;;;;;;6.79;98.37;96181.97;5034295;28;20029;-80
2022/02/24 08:25:44;;;;;;;8.80;4.03;;;;;;;7.00;95.87;96181.81;5038343;28;20018;-80
2022/02/24 08:28:10;;;;;;;10.73;5.67;;;;;;;6.77;95.84;96176.88;5020704;28;20021;-79
2022/02/24 08:30:36;;;;;;;11.40;5.30;;;;;;;6.99;95.31;96175.75;5036776;28;20487;-80
2022/02/24 08:33:02;;;;;;;9.97;5.03;;;;;;;7.07;94.20;96175.06;5034238;28;20111;-80
2022/02/24 08:35:28;;;;;;;8.03;3.67;;;;;;;7.25;94.09;96183.06;5035574;28;20041;-80
2022/02/24 08:37:54;;;;;;;6.87;3.70;;;;;;;7.44;91.43;96176.94;5042710;28;20115;-81
2022/02/24 08:40:21;;;;;;;9.93;4.00;;;;;;;7.75;88.87;96178.38;5000064;28;20104;-80
2022/02/24 08:42:50;;;;;;;8.80;3.70;;;;;;;8.30;85.35;96169.72;5045608;28;20037;-80
2022/02/24 08:45:16;;;;;;;10.33;4.73;;;;;;;8.58;84.31;96175.78;5017044;28;20311;-80
2022/02/24 08:47:44;;;;;;;8.93;4.30;;;;;;;8.90;82.95;96171.84;5029896;28;20032;-79
2022/02/24 08:50:12;;;;;;;7.90;4.43;;;;;;;9.57;78.81;96165.13;5043816;28;20042;-78
2022/02/24 08:52:39;;;;;;;8.73;4.50;;;;;;;10.02;74.55;96157.97;5015190;28;20092;-79
2022/02/24 08:55:05;;;;;;;10.83;5.00;;;;;;;10.12;74.16;96156.88;5025856;28;20037;-80
2022/02/24 08:57:32;;;;;;;10.47;4.83;;;;;;;10.55;71.41;96144.56;5042141;28;20037;-78
2022/02/24 08:59:58;;;;;;;8.07;3.87;;;;;;;10.35;71.97;96153.69;5079185;28;20034;-78
2022/02/24 09:02:24;;;;;;;9.23;3.47;;;;;;;10.90;70.19;96140.00;5017058;28;20022;-80
2022/02/24 09:04:50;;;;;;;8.33;3.43;;;;;;;11.64;67.14;96134.69;5036998;28;20124;-82
2022/02/24 09:07:16;;;;;;;7.30;3.37;;;;;;;11.48;68.52;96125.81;5046818;28;20402;-78
2022/02/24 09:09:42;;;;;;;7.00;3.30;;;;;;;11.95;64.77;96122.44;5036247;28;20070;-79
2022/02/24 09:12:09;;;;;;;5.87;2.83;;;;;;;12.32;63.32;96123.59;5018987;28;20057;-79
2022/02/24 09:14:35;;;;;;;7.53;3.37;;;;;;;12.22;62.46;96112.44;5045758;28;20126;-79
2022/02/24 09:17:02;;;;;;;8.80;3.00;;;;;;;11.99;63.97;96113.19;5052089;28;20057;-79
2022/02/24 09:19:28;;;;;;;5.00;2.90;;;;;;;12.93;61.65;96110.50;5043675;28;20045;-79
2022/02/24 09:21:59;;;;;;;6.70;2.97;;;;;;;13.09;61.65;96113.03;5056436;28;20036;-79
2022/02/24 09:24:25;;;;;;;6.50;3.07;;;;;;;13.60;60.50;96105.31;5051922;28;20033;-79
2022/02/24 09:26:51;;;;;;;6.03;2.80;;;;;;;13.53;60.33;96111.50;5027896;28;20030;-81
2022/02/24 09:29:17;;;;;;;5.50;2.63;;;;;;;13.78;58.36;96106.78;5039133;28;20072;-79
2022/02/24 09:31:43;;;;;;;5.57;2.27;;;;;;;14.01;57.56;96104.84;5031684;28;20043;-80
2022/02/24 09:34:08;;;;;;;3.50;1.20;;;;;;;14.19;56.45;96087.81;5035393;28;20094;-82
2022/02/24 09:36:34;;;;;;;3.73;1.40;;;;;;;14.03;57.52;96094.94;5048661;28;20067;-80
2022/02/24 09:39:00;;;;;;;3.37;1.50;;;;;;;13.91;56.89;96089.25;5038211;28;20068;-80
2022/02/24 09:41:26;;;;;;;5.10;1.40;;;;;;;14.26;53.20;96080.75;5029441;28;20061;-80
2022/02/24 09:43:54;;;;;;;5.57;2.10;;;;;;;13.79;56.07;96082.00;5068929;28;20044;-80
2022/02/24 09:46:20;;;;;;;3.23;1.30;;;;;;;14.37;54.36;96073.16;5022963;28;20384;-80
2022/02/24 09:48:46;;;;;;;5.23;1.80;;;;;;;14.87;53.88;96064.53;5027568;28;20029;-80
2022/02/24 09:51:18;;;;;;;4.80;1.63;;;;;;;15.06;54.02;96064.69;5031679;28;20513;-80
2022/02/24 09:53:47;;;;;;;1.67;1.03;;;;;;;14.81;54.38;96064.25;5021013;28;20041;-80
2022/02/24 09:56:21;;;;;;;6.57;2.80;;;;;;;15.13;53.18;96062.09;5009802;28;20034;-80
2022/02/24 09:58:48;;;;;;;6.77;1.70;;;;;;;14.66;54.32;96060.88;5030645;28;20029;-83
2022/02/24 10:01:15;;;;;;;5.97;1.97;;;;;;;14.58;55.21;96059.16;5041240;28;20030;-80
2022/02/24 10:03:46;;;;;;;5.90;2.07;;;;;;;14.69;55.73;96062.28;5032550;28;20033;-82
2022/02/24 10:06:14;;;;;;;5.97;2.30;;;;;;;14.97;55.46;96049.13;5060777;28;20036;-77
2022/02/24 10:08:43;;;;;;;5.03;2.10;;;;;;;15.55;52.48;96045.25;5036863;28;20033;-80
2022/02/24 10:11:24;;;;;;;5.05;1.63;;;;;;;15.90;51.16;96045.28;5021923;28;20506;-81
2022/02/24 10:13:57;;;;;;;7.22;1.60;;;;;;;15.63;51.87;96041.66;5043145;28;20069;-81
2022/02/24 10:16:24;;;;;;;4.90;1.38;;;;;;;15.29;53.47;96031.84;5023907;28;20087;-81
2022/02/24 10:18:50;;;;;;;6.53;1.77;;;;;;;16.05;51.07;96031.88;5046027;28;20113;-81
2022/02/24 10:21:20;;;;;;;3.90;1.30;;;;;;;15.21;52.36;96032.81;5027606;28;20771;-83
2022/02/24 10:23:47;;;;;;;5.72;1.20;;;;;;;15.24;52.44;96032.41;5006264;28;20041;-81
2022/02/24 10:26:15;;;;;;;6.23;1.90;;;;;;;14.39;54.49;96030.66;5040802;28;20045;-80
2022/02/24 10:28:47;;;;;;;2.97;1.33;;;;;;;14.23;52.77;96034.34;5025482;28;20044;-81
2022/02/24 10:31:18;;;;;;;5.97;1.70;;;;;;;14.13;53.86;96029.34;5018166;28;20118;-83
2022/02/24 10:33:53;;;;;;;3.90;1.80;;;;;;;14.22;53.68;96016.84;5013274;28;20037;-81
2022/02/24 10:36:21;;;;;;;3.57;1.50;;;;;;;15.43;51.59;96014.22;5040089;28;20029;-81
2022/02/24 10:38:58;;;;;;;6.50;1.40;;;;;;;16.01;49.05;96004.94;5024926;28;20038;-81
2022/02/24 10:41:43;;;;;;;3.80;1.40;;;;;;;15.44;50.40;96002.59;5018624;28;20416;-82
2022/02/24 10:44:20;;;;;;;2.70;1.07;;;;;;;15.55;50.11;96002.03;5034996;28;20029;-83
2022/02/24 10:47:07;;;;;;;3.33;1.10;;;;;;;15.81;49.56;96000.56;5018397;28;20030;-83
2022/02/24 10:49:43;;;;;;;2.03;0.98;;;;;;;16.58;48.54;95996.69;5019584;28;20029;-80
2022/02/24 10:52:19;;;;;;;4.70;1.48;;;;;;;16.01;47.96;95986.34;5021324;28;20421;-83
2022/02/24 10:54:59;;;;;;;3.47;1.10;;;;;;;15.94;48.46;95990.00;5042141;28;20530;-82
2022/02/24 10:57:27;;;;;;;4.45;1.27;;;;;;;16.42;47.92;95990.75;5015311;28;20099;-83
2022/02/24 10:59:57;;;;;;;2.72;1.40;;;;;;;16.05;47.13;95989.44;5018582;28;20029;-82
2022/02/24 11:02:25;;;;;;;3.22;1.00;;;;;;;16.17;47.07;95977.22;5042793;28;20039;-82
2022/02/24 11:04:53;;;;;;;3.08;1.00;;;;;;;15.79;48.09;95980.38;5042020;28;20029;-82
2022/02/24 11:07:19;;;;;;;5.15;1.25;;;;;;;15.68;47.92;95975.63;5029665;28;20041;-82
2022/02/24 11:09:48;;;;;;;5.05;1.30;;;;;;;14.98;49.24;95979.25;5023429;28;20032;-83
2022/02/24 11:12:15;;;;;;;3.40;1.10;;;;;;;14.87;49.59;95972.66;5025907;28;20025;-81
2022/02/24 11:14:41;;;;;;;2.10;0.88;;;;;;;14.88;48.99;95974.28;5027637;28;20033;-82
2022/02/24 11:17:11;;;;;;;5.07;1.20;;;;;;;15.23;47.97;95967.22;5041693;28;20030;-83
2022/02/24 11:19:38;;;;;;;3.83;1.60;;;;;;;14.53;48.74;95961.00;5031560;28;20045;-82
2022/02/24 11:22:06;;;;;;;3.72;1.10;;;;;;;15.21;48.28;95963.94;5053160;28;20029;-83
2022/02/24 11:24:33;;;;;;;4.40;0.98;;;;;;;15.14;48.59;95954.31;5031774;28;20467;-84
2022/02/24 11:27:24;;;;;;;2.78;1.10;;;;;;;15.12;48.94;95951.84;5058636;28;20032;-83
2022/02/24 11:30:15;;;;;;;2.80;1.20;;;;;;;14.66;50.21;95948.91;5020193;28;20092;-83